createdAt,value
2023-03-01T00:00:19.776Z,99.90
2023-03-01T00:02:46.834Z,99.90
2023-03-01T00:05:13.882Z,99.90
2023-03-01T00:07:41.186Z,99.90
2023-03-01T00:10:08.696Z,99.90
2023-03-01T00:12:37.538Z,99.90
2023-03-01T00:15:05.895Z,99.90
2023-03-01T00:17:32.952Z,99.90
2023-03-01T00:20:00.002Z,99.90
2023-03-01T00:22:29.571Z,99.90
2023-03-01T00:24:56.787Z,99.90
2023-03-01T00:27:23.869Z,99.90
2023-03-01T00:29:51.128Z,99.90
2023-03-01T00:32:18.137Z,99.90
2023-03-01T00:34:55.022Z,99.90
2023-03-01T00:37:23.053Z,99.90
2023-03-01T00:39:50.258Z,99.90
2023-03-01T00:42:17.880Z,99.90
2023-03-01T00:44:44.842Z,99.90
2023-03-01T00:47:11.824Z,99.90
2023-03-01T00:49:38.866Z,99.90
2023-03-01T00:52:06.009Z,99.90
2023-03-01T00:54:33.050Z,99.90
2023-03-01T00:57:00.129Z,99.90
2023-03-01T00:59:27.520Z,99.90
2023-03-01T01:01:54.666Z,99.90
2023-03-01T01:04:23.549Z,99.90
2023-03-01T01:06:50.632Z,99.90
2023-03-01T01:09:18.743Z,99.90
2023-03-01T01:11:48.419Z,99.90
2023-03-01T01:14:16.322Z,99.90
2023-03-01T01:16:43.342Z,99.90
2023-03-01T01:19:11.780Z,99.90
2023-03-01T01:21:38.775Z,99.90
2023-03-01T01:24:06.579Z,99.90
2023-03-01T01:26:35.075Z,99.90
2023-03-01T01:29:04.326Z,99.90
2023-03-01T01:31:32.412Z,99.90
2023-03-01T01:34:01.676Z,99.90
2023-03-01T01:36:29.350Z,99.90
2023-03-01T01:38:57.049Z,99.90
2023-03-01T01:41:25.769Z,99.90
2023-03-01T01:44:14.840Z,99.90
2023-03-01T01:47:13.772Z,99.90
2023-03-01T01:49:56.362Z,99.90
2023-03-01T01:52:44.147Z,99.90
2023-03-01T01:55:22.342Z,99.90
2023-03-01T01:57:59.754Z,99.90
2023-03-01T02:00:31.177Z,99.90
2023-03-01T02:03:02.896Z,99.90
2023-03-01T02:05:55.595Z,99.90
2023-03-01T02:08:26.522Z,99.90
2023-03-01T02:10:55.847Z,99.90
2023-03-01T02:13:22.884Z,99.90
2023-03-01T02:15:50.206Z,99.90
2023-03-01T02:18:21.193Z,99.90
2023-03-01T02:21:00.253Z,99.90
2023-03-01T02:23:28.134Z,99.90
2023-03-01T02:26:17.646Z,99.90
2023-03-01T02:28:46.194Z,99.90
2023-03-01T02:31:37.102Z,99.90
2023-03-01T02:34:06.694Z,99.90
2023-03-01T02:36:38.838Z,99.90
2023-03-01T02:39:08.313Z,99.90
2023-03-01T02:41:39.675Z,99.90
2023-03-01T02:44:07.069Z,99.90
2023-03-01T02:46:43.177Z,99.90
2023-03-01T02:49:39.846Z,99.90
2023-03-01T02:52:24.222Z,99.90
2023-03-01T02:55:03.391Z,99.90
2023-03-01T02:57:32.794Z,99.90
2023-03-01T03:00:08.220Z,99.90
2023-03-01T03:02:37.382Z,99.90
2023-03-01T03:05:28.003Z,99.90
2023-03-01T03:07:59.303Z,99.90
2023-03-01T03:10:30.618Z,99.90
2023-03-01T03:13:03.921Z,99.90
2023-03-01T03:15:31.325Z,99.90
2023-03-01T03:17:59.644Z,99.90
2023-03-01T03:20:29.201Z,99.90
2023-03-01T03:22:57.901Z,99.90
2023-03-01T03:25:26.522Z,99.90
2023-03-01T03:28:00.359Z,99.90
2023-03-01T03:30:30.668Z,99.90
2023-03-01T03:32:59.714Z,99.90
2023-03-01T03:35:32.687Z,99.90
2023-03-01T03:38:06.800Z,99.90
2023-03-01T03:40:41.944Z,99.90
2023-03-01T03:43:13.133Z,99.90
2023-03-01T03:45:40.675Z,99.90
2023-03-01T03:48:10.647Z,99.90
2023-03-01T03:50:39.305Z,99.90
2023-03-01T03:53:10.332Z,99.90
2023-03-01T03:55:40.192Z,99.90
2023-03-01T03:58:11.511Z,99.90
2023-03-01T04:00:44.452Z,99.90
2023-03-01T04:03:14.401Z,99.90
2023-03-01T04:05:43.184Z,99.90
2023-03-01T04:08:10.943Z,99.90
2023-03-01T04:10:42.931Z,99.90
2023-03-01T04:13:12.998Z,99.90
2023-03-01T04:15:40.505Z,99.90
2023-03-01T04:18:08.469Z,99.90
2023-03-01T04:20:36.684Z,99.90
2023-03-01T04:23:11.943Z,99.90
2023-03-01T04:25:41.159Z,99.90
2023-03-01T04:28:09.790Z,99.90
2023-03-01T04:30:37.913Z,99.90
2023-03-01T04:33:06.719Z,99.90
2023-03-01T04:35:35.704Z,99.90
2023-03-01T04:38:03.494Z,99.90
2023-03-01T04:40:30.741Z,99.90
2023-03-01T04:42:57.889Z,99.90
2023-03-01T04:45:25.318Z,99.90
2023-03-01T04:47:55.135Z,99.90
2023-03-01T04:50:24.007Z,99.90
2023-03-01T04:52:51.517Z,99.90
2023-03-01T04:55:18.763Z,99.90
2023-03-01T04:57:46.864Z,99.90
2023-03-01T05:00:21.564Z,99.90
2023-03-01T05:02:54.593Z,99.90
2023-03-01T05:05:27.856Z,99.90
2023-03-01T05:07:56.606Z,99.90
2023-03-01T05:10:24.296Z,99.90
2023-03-01T05:12:53.164Z,99.90
2023-03-01T05:15:22.735Z,99.90
2023-03-01T05:17:50.556Z,99.90
2023-03-01T05:20:18.377Z,99.90
2023-03-01T05:22:45.549Z,99.90
2023-03-01T05:25:15.055Z,99.90
2023-03-01T05:27:42.185Z,99.90
2023-03-01T05:30:15.934Z,99.90
2023-03-01T05:32:49.197Z,99.90
2023-03-01T05:35:18.282Z,99.90
2023-03-01T05:37:47.555Z,99.90
2023-03-01T05:40:20.148Z,99.90
2023-03-01T05:42:48.224Z,99.90
2023-03-01T05:45:16.491Z,99.90
2023-03-01T05:47:45.286Z,99.90
2023-03-01T05:50:24.250Z,99.90
2023-03-01T05:52:53.925Z,99.90
2023-03-01T05:55:22.429Z,99.90
2023-03-01T05:57:49.610Z,99.90
2023-03-01T06:00:18.866Z,99.90
2023-03-01T06:02:46.614Z,99.90
2023-03-01T06:05:14.896Z,99.90
2023-03-01T06:07:42.263Z,99.90
2023-03-01T06:10:11.055Z,99.90
2023-03-01T06:12:39.997Z,99.90
2023-03-01T06:15:10.898Z,99.90
2023-03-01T06:17:41.849Z,99.90
2023-03-01T06:20:11.120Z,99.90
2023-03-01T06:22:38.219Z,99.90
2023-03-01T06:25:06.434Z,99.90
2023-03-01T06:27:33.492Z,99.90
2023-03-01T06:30:00.449Z,99.90
2023-03-01T06:32:27.548Z,99.90
2023-03-01T06:34:54.619Z,99.90
2023-03-01T06:37:21.851Z,99.90
2023-03-01T06:39:49.009Z,99.90
2023-03-01T06:42:16.002Z,99.90
2023-03-01T06:44:43.143Z,99.90
2023-03-01T06:47:10.150Z,99.90
2023-03-01T06:49:37.186Z,99.90
2023-03-01T06:52:04.384Z,99.90
2023-03-01T06:54:31.401Z,99.90
2023-03-01T06:56:58.391Z,99.90
2023-03-01T06:59:25.328Z,99.90
2023-03-01T07:01:52.433Z,99.90
2023-03-01T07:04:19.477Z,99.90
2023-03-01T07:06:46.444Z,99.90
2023-03-01T07:09:13.400Z,99.90
2023-03-01T07:11:40.417Z,99.90
2023-03-01T07:14:07.956Z,99.90
2023-03-01T07:16:35.439Z,99.90
2023-03-01T07:19:02.659Z,99.90
2023-03-01T07:21:29.646Z,99.90
2023-03-01T07:23:56.600Z,99.90
2023-03-01T07:26:25.290Z,99.90
2023-03-01T07:28:53.338Z,99.90
2023-03-01T07:31:20.285Z,99.90
2023-03-01T07:33:47.291Z,99.90
2023-03-01T07:36:14.269Z,99.90
2023-03-01T07:38:41.583Z,99.90
2023-03-01T07:41:09.159Z,99.90
2023-03-01T07:43:36.328Z,99.90
2023-03-01T07:46:04.362Z,99.90
2023-03-01T07:48:33.324Z,99.90
2023-03-01T07:51:04.608Z,99.90
2023-03-01T07:53:32.648Z,99.90
2023-03-01T07:56:04.784Z,99.90
2023-03-01T07:58:32.120Z,99.90
2023-03-01T08:01:06.303Z,99.90
2023-03-01T08:03:34.124Z,99.90
2023-03-01T08:06:02.452Z,99.90
2023-03-01T08:08:29.726Z,99.90
2023-03-01T08:11:01.212Z,99.90
2023-03-01T08:13:28.706Z,99.90
2023-03-01T08:15:56.004Z,99.90
2023-03-01T08:18:23.139Z,99.90
2023-03-01T08:20:50.185Z,99.90
2023-03-01T08:23:17.209Z,99.90
2023-03-01T08:25:44.376Z,99.90
2023-03-01T08:28:11.353Z,99.90
2023-03-01T08:30:38.351Z,99.90
2023-03-01T08:33:05.355Z,99.90
2023-03-01T08:35:32.518Z,99.90
2023-03-01T08:37:59.627Z,99.90
2023-03-01T08:40:26.648Z,99.90
2023-03-01T08:42:53.693Z,99.90
2023-03-01T08:45:21.038Z,99.90
2023-03-01T08:47:48.053Z,99.90
2023-03-01T08:50:15.300Z,99.90
2023-03-01T08:52:42.290Z,99.90
2023-03-01T08:55:09.723Z,99.90
2023-03-01T08:57:36.941Z,99.90
2023-03-01T09:00:04.687Z,99.90
2023-03-01T09:02:34.305Z,99.90
2023-03-01T09:05:01.520Z,99.90
2023-03-01T09:07:29.344Z,99.60
2023-03-01T09:09:58.397Z,98.50
2023-03-01T09:12:26.097Z,95.20
2023-03-01T09:14:53.391Z,94.80
2023-03-01T09:17:22.614Z,92.50
2023-03-01T09:19:50.414Z,91.50
2023-03-01T09:22:17.413Z,84.70
2023-03-01T09:24:44.727Z,79.40
2023-03-01T09:27:13.844Z,81.00
2023-03-01T09:29:41.069Z,85.70
2023-03-01T09:32:09.375Z,79.30
2023-03-01T09:34:56.462Z,78.00
2023-03-01T09:37:23.539Z,76.50
2023-03-01T09:39:50.558Z,76.00
2023-03-01T09:42:17.685Z,74.60
2023-03-01T09:44:55.036Z,78.00
2023-03-01T09:47:36.953Z,75.00
2023-03-01T09:50:20.859Z,73.50
2023-03-01T09:53:16.376Z,71.70
2023-03-01T09:56:06.405Z,71.30
2023-03-01T09:58:54.133Z,78.20
2023-03-01T10:01:27.067Z,78.10
2023-03-01T10:04:32.698Z,73.40
2023-03-01T10:07:13.220Z,72.20
2023-03-01T10:09:43.501Z,71.10
2023-03-01T10:12:19.272Z,72.10
2023-03-01T10:15:13.546Z,73.70
2023-03-01T10:17:43.177Z,72.50
2023-03-01T10:20:21.114Z,71.40
2023-03-01T10:22:53.084Z,70.50
2023-03-01T10:25:48.270Z,72.50
2023-03-01T10:28:32.165Z,72.60
2023-03-01T10:31:00.982Z,71.40
2023-03-01T10:33:32.441Z,69.70
2023-03-01T10:35:59.812Z,67.60
2023-03-01T10:38:27.017Z,68.50
2023-03-01T10:41:00.169Z,70.20
2023-03-01T10:43:32.839Z,71.30
2023-03-01T10:45:59.943Z,71.60
2023-03-01T10:48:29.380Z,72.20
2023-03-01T10:50:59.298Z,70.60
2023-03-01T10:53:51.280Z,69.10
2023-03-01T10:56:18.372Z,69.30
2023-03-01T10:59:27.546Z,69.30
2023-03-01T11:02:24.371Z,68.20
2023-03-01T11:05:02.717Z,66.60
2023-03-01T11:07:30.252Z,67.00
2023-03-01T11:09:57.414Z,66.80
2023-03-01T11:12:25.639Z,66.00
2023-03-01T11:14:55.462Z,65.60
2023-03-01T11:17:28.011Z,66.10
2023-03-01T11:20:24.803Z,66.20
2023-03-01T11:23:01.158Z,69.00
2023-03-01T11:25:33.916Z,70.90
2023-03-01T11:28:04.329Z,74.20
2023-03-01T11:30:42.469Z,75.50
2023-03-01T11:33:10.677Z,76.10
2023-03-01T11:35:44.309Z,74.20
2023-03-01T11:38:26.305Z,73.60
2023-03-01T11:41:12.491Z,78.60
2023-03-01T11:44:01.742Z,78.60
2023-03-01T11:46:47.257Z,81.50
2023-03-01T11:49:50.375Z,90.40
2023-03-01T11:52:56.007Z,91.00
2023-03-01T11:56:04.415Z,89.90
2023-03-01T11:58:49.170Z,84.40
2023-03-01T12:01:41.036Z,81.40
2023-03-01T12:04:47.134Z,76.60
2023-03-01T12:07:26.986Z,71.40
2023-03-01T12:10:18.007Z,69.60
2023-03-01T12:12:57.598Z,70.50
2023-03-01T12:15:43.777Z,67.80
2023-03-01T12:18:35.625Z,68.80
2023-03-01T12:21:05.386Z,69.60
2023-03-01T12:24:01.647Z,69.60
2023-03-01T12:26:47.197Z,69.30
2023-03-01T12:29:16.942Z,73.50
2023-03-01T12:32:21.417Z,76.90
2023-03-01T12:35:06.548Z,76.30
2023-03-01T12:37:44.024Z,72.50
2023-03-01T12:40:32.009Z,71.70
2023-03-01T12:43:11.088Z,76.30
2023-03-01T12:46:21.143Z,72.40
2023-03-01T12:49:01.092Z,75.30
2023-03-01T12:51:32.451Z,77.90
2023-03-01T12:54:06.252Z,83.10
2023-03-01T12:56:39.302Z,86.40
2023-03-01T12:59:29.697Z,87.80
2023-03-01T13:02:05.943Z,88.40
2023-03-01T13:04:53.979Z,86.00
2023-03-01T13:07:35.402Z,90.00
2023-03-01T13:10:05.337Z,89.20
2023-03-01T13:12:47.799Z,90.20
2023-03-01T13:15:23.826Z,88.20
2023-03-01T13:18:02.884Z,86.70
2023-03-01T13:20:47.910Z,79.40
2023-03-01T13:23:23.795Z,80.10
2023-03-01T13:25:59.916Z,88.80
2023-03-01T13:28:32.967Z,92.20
2023-03-01T13:31:00.736Z,87.30
2023-03-01T13:33:27.716Z,85.70
2023-03-01T13:36:01.919Z,86.70
2023-03-01T13:38:49.925Z,84.10
2023-03-01T13:41:38.719Z,82.70
2023-03-01T13:44:27.499Z,80.70
2023-03-01T13:46:58.805Z,75.10
2023-03-01T13:49:45.584Z,74.50
2023-03-01T13:52:40.596Z,70.90
2023-03-01T13:55:21.974Z,66.20
2023-03-01T13:57:54.846Z,67.30
2023-03-01T14:00:39.771Z,70.00
2023-03-01T14:03:12.790Z,72.90
2023-03-01T14:05:42.016Z,72.30
2023-03-01T14:08:24.712Z,71.70
2023-03-01T14:11:19.727Z,71.50
2023-03-01T14:14:13.805Z,72.40
2023-03-01T14:16:46.870Z,72.70
2023-03-01T14:19:34.592Z,74.40
2023-03-01T14:22:26.414Z,74.40
2023-03-01T14:25:03.323Z,75.10
2023-03-01T14:27:42.946Z,74.60
2023-03-01T14:30:23.575Z,75.00
2023-03-01T14:33:21.303Z,73.00
2023-03-01T14:36:04.871Z,73.30
2023-03-01T14:38:47.128Z,75.80
2023-03-01T14:41:19.007Z,78.30
2023-03-01T14:44:07.604Z,79.30
2023-03-01T14:46:38.073Z,77.70
2023-03-01T14:49:20.488Z,79.50
2023-03-01T14:51:57.724Z,79.50
2023-03-01T14:54:46.253Z,79.70
2023-03-01T14:57:19.013Z,80.70
2023-03-01T14:59:48.804Z,81.90
2023-03-01T15:02:21.020Z,79.20
2023-03-01T15:04:50.279Z,80.60
2023-03-01T15:07:18.099Z,80.90
2023-03-01T15:09:45.990Z,82.70
2023-03-01T15:12:34.910Z,81.90
2023-03-01T15:15:04.670Z,81.90
2023-03-01T15:17:39.691Z,81.60
2023-03-01T15:20:22.613Z,82.50
2023-03-01T15:22:49.822Z,83.60
2023-03-01T15:25:22.485Z,85.60
2023-03-01T15:27:52.281Z,89.70
2023-03-01T15:30:35.742Z,91.80
2023-03-01T15:33:39.111Z,91.30
2023-03-01T15:36:38.522Z,91.50
2023-03-01T15:39:07.251Z,91.90
2023-03-01T15:41:48.017Z,92.10
2023-03-01T15:44:29.972Z,92.10
2023-03-01T15:47:03.210Z,91.40
2023-03-01T15:49:54.341Z,91.10
2023-03-01T15:52:30.019Z,92.60
2023-03-01T15:55:02.773Z,94.10
2023-03-01T15:57:30.768Z,95.40
2023-03-01T15:59:57.984Z,96.30
2023-03-01T16:02:25.915Z,96.60
2023-03-01T16:04:54.750Z,97.70
2023-03-01T16:07:21.861Z,97.30
2023-03-01T16:09:48.769Z,97.10
2023-03-01T16:12:17.149Z,97.20
2023-03-01T16:14:44.250Z,98.20
2023-03-01T16:17:11.482Z,99.60
2023-03-01T16:19:39.587Z,99.90
2023-03-01T16:22:06.759Z,99.90
2023-03-01T16:24:34.009Z,99.90
2023-03-01T16:27:00.985Z,99.90
2023-03-01T16:29:28.118Z,99.90
2023-03-01T16:31:55.169Z,99.90
2023-03-01T16:34:22.916Z,99.90
2023-03-01T16:36:50.189Z,99.90
2023-03-01T16:39:17.752Z,99.90
2023-03-01T16:41:44.886Z,99.90
2023-03-01T16:44:12.014Z,99.90
2023-03-01T16:46:39.203Z,99.90
2023-03-01T16:49:06.140Z,99.90
2023-03-01T16:51:35.735Z,99.90
2023-03-01T16:54:05.520Z,99.90
2023-03-01T16:56:35.440Z,99.90
2023-03-01T16:59:04.623Z,99.90
2023-03-01T17:01:38.599Z,99.90
2023-03-01T17:04:06.103Z,99.90
2023-03-01T17:06:33.504Z,99.90
2023-03-01T17:09:00.718Z,99.90
2023-03-01T17:11:27.776Z,99.90
2023-03-01T17:13:54.827Z,99.90
2023-03-01T17:16:22.810Z,99.90
2023-03-01T17:18:50.314Z,99.90
2023-03-01T17:21:17.866Z,99.90
2023-03-01T17:23:46.665Z,99.90
2023-03-01T17:26:14.327Z,99.90
2023-03-01T17:28:43.928Z,99.90
2023-03-01T17:31:11.827Z,99.90
2023-03-01T17:33:38.844Z,99.90
2023-03-01T17:36:06.153Z,99.90
2023-03-01T17:38:33.350Z,99.90
2023-03-01T17:41:01.274Z,99.90
2023-03-01T17:43:28.939Z,99.90
2023-03-01T17:45:56.476Z,99.90
2023-03-01T17:48:24.017Z,99.90
2023-03-01T17:50:51.091Z,99.90
2023-03-01T17:53:18.307Z,99.90
2023-03-01T17:55:45.627Z,99.90
2023-03-01T17:58:14.443Z,99.90
2023-03-01T18:00:42.101Z,99.90
2023-03-01T18:03:09.166Z,99.90
2023-03-01T18:05:38.067Z,99.90
2023-03-01T18:08:05.419Z,99.90
2023-03-01T18:10:33.660Z,99.90
2023-03-01T18:13:00.921Z,99.90
2023-03-01T18:15:29.035Z,99.90
2023-03-01T18:17:56.103Z,99.90
2023-03-01T18:20:23.221Z,99.90
2023-03-01T18:22:52.771Z,99.90
2023-03-01T18:25:20.404Z,99.90
2023-03-01T18:27:47.866Z,99.90
2023-03-01T18:30:15.414Z,99.90
2023-03-01T18:32:45.168Z,99.90
2023-03-01T18:35:12.219Z,99.90
2023-03-01T18:37:39.263Z,99.90
2023-03-01T18:40:08.367Z,99.90
2023-03-01T18:42:35.508Z,99.90
2023-03-01T18:45:02.574Z,99.90
2023-03-01T18:47:29.661Z,99.90
2023-03-01T18:49:56.801Z,99.90
2023-03-01T18:52:24.180Z,99.90
2023-03-01T18:54:52.138Z,99.90
2023-03-01T18:57:19.262Z,99.90
2023-03-01T18:59:46.290Z,99.90
2023-03-01T19:02:15.857Z,99.90
2023-03-01T19:04:43.429Z,99.90
2023-03-01T19:07:12.756Z,99.90
2023-03-01T19:09:41.103Z,99.90
2023-03-01T19:12:08.521Z,99.90
2023-03-01T19:14:36.003Z,99.90
2023-03-01T19:17:03.275Z,99.90
2023-03-01T19:19:30.324Z,99.90
2023-03-01T19:22:05.760Z,99.90
2023-03-01T19:24:34.019Z,99.90
2023-03-01T19:27:01.178Z,99.90
2023-03-01T19:29:28.195Z,99.90
2023-03-01T19:31:55.299Z,99.90
2023-03-01T19:34:24.553Z,99.90
2023-03-01T19:36:51.606Z,99.90
2023-03-01T19:39:18.755Z,99.90
2023-03-01T19:41:48.204Z,99.90
2023-03-01T19:44:16.930Z,99.90
2023-03-01T19:46:44.109Z,99.90
2023-03-01T19:49:11.208Z,99.90
2023-03-01T19:51:39.453Z,99.90
2023-03-01T19:54:07.421Z,99.90
2023-03-01T19:56:35.100Z,99.90
2023-03-01T19:59:04.585Z,99.90
2023-03-01T20:01:33.212Z,99.90
2023-03-01T20:04:01.376Z,99.90
2023-03-01T20:06:30.424Z,99.90
2023-03-01T20:08:58.670Z,99.90
2023-03-01T20:11:25.893Z,99.90
2023-03-01T20:13:53.280Z,99.90
2023-03-01T20:16:23.014Z,99.90
2023-03-01T20:18:50.373Z,99.90
2023-03-01T20:21:24.018Z,99.90
2023-03-01T20:23:52.707Z,99.90
2023-03-01T20:26:20.698Z,99.90
2023-03-01T20:28:50.409Z,99.90
2023-03-01T20:31:19.951Z,99.90
2023-03-01T20:33:47.115Z,99.90
2023-03-01T20:36:14.699Z,99.90
2023-03-01T20:38:42.088Z,99.90
2023-03-01T20:41:11.610Z,99.90
2023-03-01T20:43:40.461Z,99.90
2023-03-01T20:46:11.487Z,99.90
2023-03-01T20:48:43.082Z,99.90
2023-03-01T20:51:12.506Z,99.90
2023-03-01T20:53:40.061Z,99.90
2023-03-01T20:56:10.796Z,99.90
2023-03-01T20:58:38.100Z,99.90
2023-03-01T21:01:07.483Z,99.90
2023-03-01T21:03:36.462Z,99.90
2023-03-01T21:06:06.354Z,99.90
2023-03-01T21:08:35.619Z,99.90
2023-03-01T21:11:04.675Z,99.90
2023-03-01T21:13:33.725Z,99.90
2023-03-01T21:16:15.697Z,99.90
2023-03-01T21:18:43.490Z,99.90
2023-03-01T21:21:13.672Z,99.90
2023-03-01T21:23:42.793Z,99.90
2023-03-01T21:26:11.238Z,99.90
2023-03-01T21:28:39.219Z,99.90
2023-03-01T21:31:07.550Z,99.90
2023-03-01T21:33:36.214Z,99.90
2023-03-01T21:36:06.926Z,99.90
2023-03-01T21:38:39.722Z,99.90
2023-03-01T21:41:21.544Z,99.90
2023-03-01T21:43:50.722Z,99.90
2023-03-01T21:46:20.842Z,99.90
2023-03-01T21:48:49.740Z,99.90
2023-03-01T21:51:18.930Z,99.90
2023-03-01T21:53:46.442Z,99.90
2023-03-01T21:56:26.093Z,99.90
2023-03-01T21:58:53.687Z,99.90
2023-03-01T22:01:29.865Z,99.90
2023-03-01T22:03:58.299Z,99.90
2023-03-01T22:06:34.122Z,99.90
2023-03-01T22:09:07.720Z,99.90
2023-03-01T22:11:37.973Z,99.90
2023-03-01T22:14:05.839Z,99.90
2023-03-01T22:16:35.710Z,99.90
2023-03-01T22:19:04.365Z,99.90
2023-03-01T22:21:31.797Z,99.90
2023-03-01T22:23:59.449Z,99.90
2023-03-01T22:26:35.730Z,99.90
2023-03-01T22:29:06.041Z,99.90
2023-03-01T22:31:33.318Z,99.90
2023-03-01T22:34:00.822Z,99.90
2023-03-01T22:36:28.536Z,99.90
2023-03-01T22:39:00.408Z,99.90
2023-03-01T22:41:33.642Z,99.90
2023-03-01T22:44:00.844Z,99.90
2023-03-01T22:46:28.614Z,99.90
2023-03-01T22:48:55.875Z,99.90
2023-03-01T22:51:29.708Z,99.90
2023-03-01T22:53:58.141Z,99.90
2023-03-01T22:56:36.788Z,99.90
2023-03-01T22:59:09.688Z,99.90
2023-03-01T23:01:38.310Z,99.90
2023-03-01T23:04:05.669Z,99.90
2023-03-01T23:06:33.287Z,99.90
2023-03-01T23:09:04.285Z,99.90
2023-03-01T23:11:31.370Z,99.90
2023-03-01T23:13:59.719Z,99.90
2023-03-01T23:16:27.260Z,99.90
2023-03-01T23:19:00.685Z,99.90
2023-03-01T23:21:28.310Z,99.90
2023-03-01T23:23:56.939Z,99.90
2023-03-01T23:26:27.086Z,99.90
2023-03-01T23:28:55.581Z,99.90
2023-03-01T23:31:22.687Z,99.90
2023-03-01T23:33:49.720Z,99.90
2023-03-01T23:36:19.700Z,99.90
2023-03-01T23:38:48.259Z,99.90
2023-03-01T23:41:18.178Z,99.90
2023-03-01T23:43:49.973Z,99.90
2023-03-01T23:46:18.937Z,99.90
2023-03-01T23:48:46.762Z,99.90
2023-03-01T23:51:15.291Z,99.90
2023-03-01T23:53:54.020Z,99.90
2023-03-01T23:56:27.179Z,99.90
2023-03-01T23:58:55.336Z,99.90
